sensor_id;sensor_type;location;lat;lon;timestamp;P1;durP1;ratioP1;P2;durP2;ratioP2
32535;SDS011;18974;50.838;4.636;2023-07-13T00:01:30;8.63;;;1.77;;
32535;SDS011;18974;50.838;4.636;2023-07-13T00:03:56;5.25;;;1.88;;
32535;SDS011;18974;50.838;4.636;2023-07-13T00:06:23;9.02;;;1.98;;
32535;SDS011;18974;50.838;4.636;2023-07-13T00:08:49;9.02;;;2.30;;
32535;SDS011;18974;50.838;4.636;2023-07-13T00:11:15;10.95;;;2.53;;
32535;SDS011;18974;50.838;4.636;2023-07-13T00:13:42;8.40;;;2.38;;
32535;SDS011;18974;50.838;4.636;2023-07-13T00:16:09;5.50;;;1.70;;
32535;SDS011;18974;50.838;4.636;2023-07-13T00:18:36;13.55;;;2.15;;
32535;SDS011;18974;50.838;4.636;2023-07-13T00:21:02;9.90;;;2.53;;
32535;SDS011;18974;50.838;4.636;2023-07-13T00:23:32;9.32;;;2.47;;
32535;SDS011;18974;50.838;4.636;2023-07-13T00:26:03;7.68;;;2.15;;
32535;SDS011;18974;50.838;4.636;2023-07-13T00:28:30;6.10;;;1.88;;
32535;SDS011;18974;50.838;4.636;2023-07-13T00:30:57;8.02;;;2.33;;
32535;SDS011;18974;50.838;4.636;2023-07-13T00:33:23;9.60;;;2.40;;
32535;SDS011;18974;50.838;4.636;2023-07-13T00:35:49;9.40;;;2.78;;
32535;SDS011;18974;50.838;4.636;2023-07-13T00:38:15;15.93;;;2.17;;
32535;SDS011;18974;50.838;4.636;2023-07-13T00:40:41;10.73;;;2.95;;
32535;SDS011;18974;50.838;4.636;2023-07-13T00:43:14;8.32;;;2.25;;
32535;SDS011;18974;50.838;4.636;2023-07-13T00:48:08;7.95;;;2.35;;
32535;SDS011;18974;50.838;4.636;2023-07-13T00:50:34;12.75;;;2.65;;
32535;SDS011;18974;50.838;4.636;2023-07-13T00:53:00;10.75;;;2.83;;
32535;SDS011;18974;50.838;4.636;2023-07-13T00:55:25;9.63;;;2.45;;
32535;SDS011;18974;50.838;4.636;2023-07-13T00:57:52;9.68;;;2.90;;
32535;SDS011;18974;50.838;4.636;2023-07-13T01:00:18;8.60;;;2.40;;
32535;SDS011;18974;50.838;4.636;2023-07-13T01:02:46;9.93;;;2.58;;
32535;SDS011;18974;50.838;4.636;2023-07-13T01:05:14;13.27;;;2.83;;
32535;SDS011;18974;50.838;4.636;2023-07-13T01:07:43;10.80;;;2.33;;
32535;SDS011;18974;50.838;4.636;2023-07-13T01:10:10;10.63;;;2.47;;
32535;SDS011;18974;50.838;4.636;2023-07-13T01:12:37;10.00;;;2.67;;
32535;SDS011;18974;50.838;4.636;2023-07-13T01:15:03;15.10;;;3.47;;
32535;SDS011;18974;50.838;4.636;2023-07-13T01:17:29;7.82;;;2.25;;
32535;SDS011;18974;50.838;4.636;2023-07-13T01:19:58;11.20;;;2.40;;
32535;SDS011;18974;50.838;4.636;2023-07-13T01:22:24;13.50;;;2.38;;
32535;SDS011;18974;50.838;4.636;2023-07-13T01:24:51;14.23;;;2.78;;
32535;SDS011;18974;50.838;4.636;2023-07-13T01:27:20;11.20;;;2.40;;
32535;SDS011;18974;50.838;4.636;2023-07-13T01:29:49;11.63;;;2.55;;
32535;SDS011;18974;50.838;4.636;2023-07-13T01:32:18;13.90;;;2.55;;
32535;SDS011;18974;50.838;4.636;2023-07-13T01:34:49;13.07;;;2.63;;
32535;SDS011;18974;50.838;4.636;2023-07-13T01:37:21;15.07;;;2.88;;
32535;SDS011;18974;50.838;4.636;2023-07-13T01:39:48;19.17;;;3.33;;
32535;SDS011;18974;50.838;4.636;2023-07-13T01:42:14;7.55;;;2.38;;
32535;SDS011;18974;50.838;4.636;2023-07-13T01:44:40;9.40;;;2.42;;
32535;SDS011;18974;50.838;4.636;2023-07-13T01:47:06;8.55;;;2.33;;
32535;SDS011;18974;50.838;4.636;2023-07-13T01:49:32;11.10;;;2.40;;
32535;SDS011;18974;50.838;4.636;2023-07-13T01:51:57;16.17;;;2.60;;
32535;SDS011;18974;50.838;4.636;2023-07-13T01:54:23;13.02;;;3.53;;
32535;SDS011;18974;50.838;4.636;2023-07-13T01:56:49;8.98;;;2.63;;
32535;SDS011;18974;50.838;4.636;2023-07-13T01:59:14;10.13;;;2.78;;
32535;SDS011;18974;50.838;4.636;2023-07-13T02:01:40;8.20;;;2.67;;
32535;SDS011;18974;50.838;4.636;2023-07-13T02:04:06;10.57;;;2.85;;
32535;SDS011;18974;50.838;4.636;2023-07-13T02:06:31;12.02;;;3.05;;
32535;SDS011;18974;50.838;4.636;2023-07-13T02:08:57;11.73;;;2.67;;
32535;SDS011;18974;50.838;4.636;2023-07-13T02:11:23;18.00;;;3.13;;
32535;SDS011;18974;50.838;4.636;2023-07-13T02:13:49;8.10;;;2.53;;
32535;SDS011;18974;50.838;4.636;2023-07-13T02:16:16;14.73;;;2.90;;
32535;SDS011;18974;50.838;4.636;2023-07-13T02:18:41;8.07;;;2.63;;
32535;SDS011;18974;50.838;4.636;2023-07-13T02:21:07;15.35;;;2.83;;
32535;SDS011;18974;50.838;4.636;2023-07-13T02:23:33;11.10;;;3.28;;
32535;SDS011;18974;50.838;4.636;2023-07-13T02:25:59;16.60;;;3.10;;
32535;SDS011;18974;50.838;4.636;2023-07-13T02:28:27;13.13;;;3.03;;
32535;SDS011;18974;50.838;4.636;2023-07-13T02:30:53;9.25;;;3.28;;
32535;SDS011;18974;50.838;4.636;2023-07-13T02:33:19;16.90;;;3.65;;
32535;SDS011;18974;50.838;4.636;2023-07-13T02:35:45;13.07;;;3.33;;
32535;SDS011;18974;50.838;4.636;2023-07-13T02:38:10;10.63;;;2.97;;
32535;SDS011;18974;50.838;4.636;2023-07-13T02:40:36;17.48;;;3.78;;
32535;SDS011;18974;50.838;4.636;2023-07-13T02:43:02;11.57;;;3.20;;
32535;SDS011;18974;50.838;4.636;2023-07-13T02:45:28;7.32;;;2.53;;
32535;SDS011;18974;50.838;4.636;2023-07-13T02:47:54;10.57;;;3.17;;
32535;SDS011;18974;50.838;4.636;2023-07-13T02:50:20;14.13;;;3.22;;
32535;SDS011;18974;50.838;4.636;2023-07-13T02:52:46;15.43;;;3.70;;
32535;SDS011;18974;50.838;4.636;2023-07-13T02:55:11;11.25;;;3.28;;
32535;SDS011;18974;50.838;4.636;2023-07-13T02:57:37;10.90;;;3.42;;
32535;SDS011;18974;50.838;4.636;2023-07-13T03:00:03;12.93;;;3.25;;
32535;SDS011;18974;50.838;4.636;2023-07-13T03:02:33;16.67;;;3.78;;
32535;SDS011;18974;50.838;4.636;2023-07-13T03:04:59;14.50;;;3.15;;
32535;SDS011;18974;50.838;4.636;2023-07-13T03:07:25;11.90;;;3.03;;
32535;SDS011;18974;50.838;4.636;2023-07-13T03:09:57;14.52;;;3.28;;
32535;SDS011;18974;50.838;4.636;2023-07-13T03:12:24;19.88;;;3.20;;
32535;SDS011;18974;50.838;4.636;2023-07-13T03:14:50;11.00;;;3.25;;
32535;SDS011;18974;50.838;4.636;2023-07-13T03:17:16;16.67;;;3.30;;
32535;SDS011;18974;50.838;4.636;2023-07-13T03:19:42;9.70;;;2.92;;
32535;SDS011;18974;50.838;4.636;2023-07-13T03:22:08;20.95;;;4.35;;
32535;SDS011;18974;50.838;4.636;2023-07-13T03:24:34;14.73;;;3.72;;
32535;SDS011;18974;50.838;4.636;2023-07-13T03:27:04;8.07;;;2.78;;
32535;SDS011;18974;50.838;4.636;2023-07-13T03:29:30;14.27;;;3.42;;
32535;SDS011;18974;50.838;4.636;2023-07-13T03:31:56;13.13;;;3.10;;
32535;SDS011;18974;50.838;4.636;2023-07-13T03:34:22;12.63;;;3.40;;
32535;SDS011;18974;50.838;4.636;2023-07-13T03:36:48;14.13;;;3.60;;
32535;SDS011;18974;50.838;4.636;2023-07-13T03:39:13;12.70;;;3.35;;
32535;SDS011;18974;50.838;4.636;2023-07-13T03:41:39;17.35;;;3.40;;
32535;SDS011;18974;50.838;4.636;2023-07-13T03:44:04;12.90;;;3.50;;
32535;SDS011;18974;50.838;4.636;2023-07-13T03:46:30;16.02;;;3.70;;
32535;SDS011;18974;50.838;4.636;2023-07-13T03:48:56;13.88;;;3.47;;
32535;SDS011;18974;50.838;4.636;2023-07-13T03:51:22;13.18;;;4.22;;
32535;SDS011;18974;50.838;4.636;2023-07-13T03:53:49;20.08;;;4.22;;
32535;SDS011;18974;50.838;4.636;2023-07-13T03:56:16;7.43;;;2.70;;
32535;SDS011;18974;50.838;4.636;2023-07-13T03:58:43;11.63;;;3.10;;
32535;SDS011;18974;50.838;4.636;2023-07-13T04:01:13;11.43;;;2.67;;
32535;SDS011;18974;50.838;4.636;2023-07-13T04:03:40;13.05;;;2.75;;
32535;SDS011;18974;50.838;4.636;2023-07-13T04:06:08;18.08;;;4.00;;
32535;SDS011;18974;50.838;4.636;2023-07-13T04:08:40;13.25;;;3.45;;
32535;SDS011;18974;50.838;4.636;2023-07-13T04:11:06;13.05;;;3.22;;
32535;SDS011;18974;50.838;4.636;2023-07-13T04:13:32;15.43;;;3.85;;
32535;SDS011;18974;50.838;4.636;2023-07-13T04:15:57;11.85;;;3.17;;
32535;SDS011;18974;50.838;4.636;2023-07-13T04:18:23;14.38;;;3.72;;
32535;SDS011;18974;50.838;4.636;2023-07-13T04:20:49;18.10;;;3.13;;
32535;SDS011;18974;50.838;4.636;2023-07-13T04:23:16;15.38;;;2.88;;
32535;SDS011;18974;50.838;4.636;2023-07-13T04:25:46;11.55;;;3.17;;
32535;SDS011;18974;50.838;4.636;2023-07-13T04:28:14;8.90;;;2.92;;
32535;SDS011;18974;50.838;4.636;2023-07-13T04:30:40;13.07;;;3.28;;
32535;SDS011;18974;50.838;4.636;2023-07-13T04:33:06;19.73;;;3.45;;
32535;SDS011;18974;50.838;4.636;2023-07-13T04:35:33;15.52;;;3.30;;
32535;SDS011;18974;50.838;4.636;2023-07-13T04:38:00;14.77;;;3.30;;
32535;SDS011;18974;50.838;4.636;2023-07-13T04:40:26;23.60;;;3.65;;
32535;SDS011;18974;50.838;4.636;2023-07-13T04:42:53;9.55;;;2.70;;
32535;SDS011;18974;50.838;4.636;2023-07-13T04:45:18;14.30;;;4.00;;
32535;SDS011;18974;50.838;4.636;2023-07-13T04:47:44;13.02;;;3.38;;
32535;SDS011;18974;50.838;4.636;2023-07-13T04:50:12;21.55;;;3.45;;
32535;SDS011;18974;50.838;4.636;2023-07-13T04:52:43;16.42;;;3.22;;
32535;SDS011;18974;50.838;4.636;2023-07-13T04:55:09;25.77;;;4.43;;
32535;SDS011;18974;50.838;4.636;2023-07-13T04:57:35;14.85;;;3.50;;
32535;SDS011;18974;50.838;4.636;2023-07-13T05:00:01;15.10;;;3.63;;
32535;SDS011;18974;50.838;4.636;2023-07-13T05:02:31;17.73;;;3.45;;
32535;SDS011;18974;50.838;4.636;2023-07-13T05:04:57;15.93;;;3.22;;
32535;SDS011;18974;50.838;4.636;2023-07-13T05:07:23;15.55;;;3.88;;
32535;SDS011;18974;50.838;4.636;2023-07-13T05:09:49;20.52;;;4.05;;
32535;SDS011;18974;50.838;4.636;2023-07-13T05:12:15;20.90;;;3.60;;
32535;SDS011;18974;50.838;4.636;2023-07-13T05:14:41;19.67;;;4.07;;
32535;SDS011;18974;50.838;4.636;2023-07-13T05:17:06;18.63;;;3.65;;
32535;SDS011;18974;50.838;4.636;2023-07-13T05:19:32;13.93;;;3.25;;
32535;SDS011;18974;50.838;4.636;2023-07-13T05:21:58;22.15;;;3.25;;
32535;SDS011;18974;50.838;4.636;2023-07-13T05:24:24;16.27;;;3.40;;
32535;SDS011;18974;50.838;4.636;2023-07-13T05:26:50;14.98;;;3.20;;
32535;SDS011;18974;50.838;4.636;2023-07-13T05:29:16;20.08;;;4.47;;
32535;SDS011;18974;50.838;4.636;2023-07-13T05:31:41;16.05;;;3.17;;
32535;SDS011;18974;50.838;4.636;2023-07-13T05:34:07;14.98;;;3.33;;
32535;SDS011;18974;50.838;4.636;2023-07-13T05:36:32;13.50;;;3.10;;
32535;SDS011;18974;50.838;4.636;2023-07-13T05:38:59;16.65;;;3.35;;
32535;SDS011;18974;50.838;4.636;2023-07-13T05:41:24;19.20;;;3.95;;
32535;SDS011;18974;50.838;4.636;2023-07-13T05:43:50;14.10;;;3.53;;
32535;SDS011;18974;50.838;4.636;2023-07-13T05:46:16;17.63;;;3.70;;
32535;SDS011;18974;50.838;4.636;2023-07-13T05:48:41;12.45;;;3.72;;
32535;SDS011;18974;50.838;4.636;2023-07-13T05:51:07;16.65;;;3.15;;
32535;SDS011;18974;50.838;4.636;2023-07-13T05:53:33;12.65;;;3.00;;
32535;SDS011;18974;50.838;4.636;2023-07-13T05:55:59;15.05;;;3.42;;
32535;SDS011;18974;50.838;4.636;2023-07-13T05:58:25;17.23;;;4.60;;
32535;SDS011;18974;50.838;4.636;2023-07-13T06:00:58;17.17;;;3.72;;
32535;SDS011;18974;50.838;4.636;2023-07-13T06:03:28;16.35;;;3.05;;
32535;SDS011;18974;50.838;4.636;2023-07-13T06:05:54;14.60;;;3.15;;
32535;SDS011;18974;50.838;4.636;2023-07-13T06:08:20;20.77;;;4.13;;
32535;SDS011;18974;50.838;4.636;2023-07-13T06:10:46;17.17;;;3.45;;
32535;SDS011;18974;50.838;4.636;2023-07-13T06:13:11;16.60;;;4.15;;
32535;SDS011;18974;50.838;4.636;2023-07-13T06:15:37;20.10;;;3.53;;
32535;SDS011;18974;50.838;4.636;2023-07-13T06:18:02;21.38;;;4.15;;
32535;SDS011;18974;50.838;4.636;2023-07-13T06:20:28;18.67;;;4.40;;
32535;SDS011;18974;50.838;4.636;2023-07-13T06:22:54;23.27;;;4.18;;
32535;SDS011;18974;50.838;4.636;2023-07-13T06:25:20;18.77;;;3.60;;
32535;SDS011;18974;50.838;4.636;2023-07-13T06:27:46;16.85;;;3.83;;
32535;SDS011;18974;50.838;4.636;2023-07-13T06:30:11;15.30;;;3.33;;
32535;SDS011;18974;50.838;4.636;2023-07-13T06:32:37;22.55;;;4.20;;
32535;SDS011;18974;50.838;4.636;2023-07-13T06:35:03;16.33;;;3.83;;
32535;SDS011;18974;50.838;4.636;2023-07-13T06:37:29;18.63;;;3.63;;
32535;SDS011;18974;50.838;4.636;2023-07-13T06:39:55;13.98;;;3.10;;
32535;SDS011;18974;50.838;4.636;2023-07-13T06:42:20;20.75;;;4.47;;
32535;SDS011;18974;50.838;4.636;2023-07-13T06:44:46;13.65;;;3.90;;
32535;SDS011;18974;50.838;4.636;2023-07-13T06:47:11;18.95;;;3.38;;
32535;SDS011;18974;50.838;4.636;2023-07-13T06:49:37;22.85;;;4.13;;
32535;SDS011;18974;50.838;4.636;2023-07-13T06:52:03;16.08;;;3.88;;
32535;SDS011;18974;50.838;4.636;2023-07-13T06:54:29;16.98;;;3.55;;
32535;SDS011;18974;50.838;4.636;2023-07-13T06:56:54;20.05;;;3.53;;
32535;SDS011;18974;50.838;4.636;2023-07-13T06:59:20;20.08;;;3.55;;
32535;SDS011;18974;50.838;4.636;2023-07-13T07:01:46;19.17;;;3.92;;
32535;SDS011;18974;50.838;4.636;2023-07-13T07:04:11;18.23;;;3.58;;
32535;SDS011;18974;50.838;4.636;2023-07-13T07:06:37;19.98;;;3.20;;
32535;SDS011;18974;50.838;4.636;2023-07-13T07:09:03;20.17;;;3.78;;
32535;SDS011;18974;50.838;4.636;2023-07-13T07:11:28;13.63;;;3.85;;
32535;SDS011;18974;50.838;4.636;2023-07-13T07:13:54;17.88;;;3.92;;
32535;SDS011;18974;50.838;4.636;2023-07-13T07:16:20;15.20;;;3.60;;
32535;SDS011;18974;50.838;4.636;2023-07-13T07:18:46;14.60;;;3.58;;
32535;SDS011;18974;50.838;4.636;2023-07-13T07:21:13;17.10;;;3.60;;
32535;SDS011;18974;50.838;4.636;2023-07-13T07:23:39;9.68;;;3.00;;
32535;SDS011;18974;50.838;4.636;2023-07-13T07:26:05;13.52;;;3.53;;
32535;SDS011;18974;50.838;4.636;2023-07-13T07:28:33;14.63;;;3.42;;
32535;SDS011;18974;50.838;4.636;2023-07-13T07:30:59;13.32;;;3.00;;
32535;SDS011;18974;50.838;4.636;2023-07-13T07:33:25;14.60;;;3.80;;
32535;SDS011;18974;50.838;4.636;2023-07-13T07:35:51;18.50;;;3.63;;
32535;SDS011;18974;50.838;4.636;2023-07-13T07:38:16;11.77;;;2.97;;
32535;SDS011;18974;50.838;4.636;2023-07-13T07:40:42;16.15;;;3.45;;
32535;SDS011;18974;50.838;4.636;2023-07-13T07:43:09;18.33;;;3.33;;
32535;SDS011;18974;50.838;4.636;2023-07-13T07:45:36;16.58;;;3.15;;
32535;SDS011;18974;50.838;4.636;2023-07-13T07:48:02;19.35;;;3.47;;
32535;SDS011;18974;50.838;4.636;2023-07-13T07:50:29;19.05;;;3.50;;
32535;SDS011;18974;50.838;4.636;2023-07-13T07:52:55;14.85;;;3.45;;
32535;SDS011;18974;50.838;4.636;2023-07-13T07:55:21;13.45;;;3.25;;
32535;SDS011;18974;50.838;4.636;2023-07-13T07:57:47;13.35;;;3.33;;
32535;SDS011;18974;50.838;4.636;2023-07-13T08:00:13;11.35;;;2.75;;
32535;SDS011;18974;50.838;4.636;2023-07-13T08:02:40;11.90;;;2.90;;
32535;SDS011;18974;50.838;4.636;2023-07-13T08:05:08;13.82;;;3.13;;
32535;SDS011;18974;50.838;4.636;2023-07-13T08:07:35;15.00;;;3.45;;
32535;SDS011;18974;50.838;4.636;2023-07-13T08:10:05;16.48;;;3.83;;
32535;SDS011;18974;50.838;4.636;2023-07-13T08:12:35;11.95;;;2.83;;
32535;SDS011;18974;50.838;4.636;2023-07-13T08:15:02;19.63;;;4.53;;
32535;SDS011;18974;50.838;4.636;2023-07-13T08:17:28;21.17;;;3.42;;
32535;SDS011;18974;50.838;4.636;2023-07-13T08:19:54;17.00;;;5.07;;
32535;SDS011;18974;50.838;4.636;2023-07-13T08:22:20;25.60;;;6.18;;
32535;SDS011;18974;50.838;4.636;2023-07-13T08:24:45;24.90;;;3.78;;
32535;SDS011;18974;50.838;4.636;2023-07-13T08:27:12;11.82;;;3.38;;
32535;SDS011;18974;50.838;4.636;2023-07-13T08:29:38;11.10;;;3.10;;
32535;SDS011;18974;50.838;4.636;2023-07-13T08:32:04;14.30;;;3.35;;
32535;SDS011;18974;50.838;4.636;2023-07-13T08:34:34;12.98;;;3.30;;
32535;SDS011;18974;50.838;4.636;2023-07-13T08:37:00;12.50;;;2.88;;
32535;SDS011;18974;50.838;4.636;2023-07-13T08:39:26;25.13;;;4.93;;
32535;SDS011;18974;50.838;4.636;2023-07-13T08:41:54;16.75;;;3.33;;
32535;SDS011;18974;50.838;4.636;2023-07-13T08:47:01;14.18;;;3.13;;
32535;SDS011;18974;50.838;4.636;2023-07-13T08:49:27;17.17;;;3.75;;
32535;SDS011;18974;50.838;4.636;2023-07-13T08:52:03;13.68;;;2.63;;
32535;SDS011;18974;50.838;4.636;2023-07-13T08:54:38;11.15;;;2.75;;
32535;SDS011;18974;50.838;4.636;2023-07-13T08:57:15;9.40;;;2.92;;
32535;SDS011;18974;50.838;4.636;2023-07-13T08:59:44;10.40;;;2.70;;
32535;SDS011;18974;50.838;4.636;2023-07-13T09:02:16;10.68;;;2.50;;
32535;SDS011;18974;50.838;4.636;2023-07-13T09:10:32;8.07;;;2.30;;
32535;SDS011;18974;50.838;4.636;2023-07-13T09:15:54;6.95;;;2.00;;
32535;SDS011;18974;50.838;4.636;2023-07-13T09:18:32;10.18;;;2.28;;
32535;SDS011;18974;50.838;4.636;2023-07-13T09:21:00;10.85;;;2.42;;
32535;SDS011;18974;50.838;4.636;2023-07-13T09:23:40;9.45;;;2.00;;
32535;SDS011;18974;50.838;4.636;2023-07-13T09:26:19;8.82;;;2.15;;
32535;SDS011;18974;50.838;4.636;2023-07-13T09:29:31;9.60;;;2.20;;
32535;SDS011;18974;50.838;4.636;2023-07-13T09:31:46;10.93;;;2.22;;
32535;SDS011;18974;50.838;4.636;2023-07-13T09:34:17;16.00;;;2.38;;
32535;SDS011;18974;50.838;4.636;2023-07-13T09:36:42;10.07;;;2.50;;
32535;SDS011;18974;50.838;4.636;2023-07-13T09:44:31;7.63;;;2.25;;
32535;SDS011;18974;50.838;4.636;2023-07-13T09:47:00;9.05;;;2.20;;
32535;SDS011;18974;50.838;4.636;2023-07-13T09:49:28;9.40;;;2.33;;
32535;SDS011;18974;50.838;4.636;2023-07-13T09:52:01;9.85;;;2.70;;
32535;SDS011;18974;50.838;4.636;2023-07-13T09:54:32;11.30;;;3.42;;
32535;SDS011;18974;50.838;4.636;2023-07-13T09:56:59;8.52;;;2.38;;
32535;SDS011;18974;50.838;4.636;2023-07-13T09:59:31;13.23;;;3.40;;
32535;SDS011;18974;50.838;4.636;2023-07-13T10:02:01;9.85;;;2.72;;
32535;SDS011;18974;50.838;4.636;2023-07-13T10:04:31;8.90;;;2.13;;
32535;SDS011;18974;50.838;4.636;2023-07-13T10:07:08;11.57;;;2.08;;
32535;SDS011;18974;50.838;4.636;2023-07-13T10:09:38;12.70;;;2.20;;
32535;SDS011;18974;50.838;4.636;2023-07-13T10:12:04;6.30;;;2.08;;
32535;SDS011;18974;50.838;4.636;2023-07-13T10:14:38;6.38;;;2.25;;
32535;SDS011;18974;50.838;4.636;2023-07-13T10:17:08;8.98;;;1.80;;
32535;SDS011;18974;50.838;4.636;2023-07-13T10:19:38;9.55;;;2.05;;
32535;SDS011;18974;50.838;4.636;2023-07-13T10:24:39;8.60;;;2.22;;
32535;SDS011;18974;50.838;4.636;2023-07-13T10:27:16;11.23;;;2.20;;
32535;SDS011;18974;50.838;4.636;2023-07-13T10:29:55;12.20;;;2.17;;
32535;SDS011;18974;50.838;4.636;2023-07-13T10:32:29;9.48;;;1.85;;
32535;SDS011;18974;50.838;4.636;2023-07-13T10:34:55;6.03;;;1.98;;
32535;SDS011;18974;50.838;4.636;2023-07-13T10:37:24;7.90;;;2.15;;
32535;SDS011;18974;50.838;4.636;2023-07-13T10:39:53;10.13;;;2.22;;
32535;SDS011;18974;50.838;4.636;2023-07-13T10:42:43;10.20;;;2.67;;
32535;SDS011;18974;50.838;4.636;2023-07-13T10:45:20;12.27;;;2.10;;
32535;SDS011;18974;50.838;4.636;2023-07-13T10:47:48;10.05;;;2.08;;
32535;SDS011;18974;50.838;4.636;2023-07-13T10:50:21;9.45;;;2.13;;
32535;SDS011;18974;50.838;4.636;2023-07-13T10:52:55;9.13;;;2.20;;
32535;SDS011;18974;50.838;4.636;2023-07-13T10:55:38;7.25;;;2.08;;
32535;SDS011;18974;50.838;4.636;2023-07-13T10:58:12;5.88;;;1.65;;
32535;SDS011;18974;50.838;4.636;2023-07-13T11:03:38;6.60;;;2.10;;
32535;SDS011;18974;50.838;4.636;2023-07-13T11:14:00;8.27;;;2.58;;
32535;SDS011;18974;50.838;4.636;2023-07-13T11:16:37;7.47;;;2.05;;
32535;SDS011;18974;50.838;4.636;2023-07-13T11:22:01;5.28;;;1.42;;
32535;SDS011;18974;50.838;4.636;2023-07-13T11:24:49;7.13;;;1.52;;
32535;SDS011;18974;50.838;4.636;2023-07-13T11:27:43;6.43;;;1.88;;
32535;SDS011;18974;50.838;4.636;2023-07-13T11:33:10;10.20;;;1.73;;
32535;SDS011;18974;50.838;4.636;2023-07-13T11:39:24;5.35;;;1.85;;
32535;SDS011;18974;50.838;4.636;2023-07-13T11:41:43;10.27;;;2.85;;
32535;SDS011;18974;50.838;4.636;2023-07-13T11:44:15;9.55;;;2.53;;
32535;SDS011;18974;50.838;4.636;2023-07-13T11:46:51;5.10;;;1.83;;
32535;SDS011;18974;50.838;4.636;2023-07-13T11:49:22;5.93;;;1.58;;
32535;SDS011;18974;50.838;4.636;2023-07-13T11:51:50;5.38;;;1.60;;
32535;SDS011;18974;50.838;4.636;2023-07-13T11:54:23;4.40;;;1.40;;
32535;SDS011;18974;50.838;4.636;2023-07-13T11:56:57;5.15;;;1.40;;
32535;SDS011;18974;50.838;4.636;2023-07-13T11:59:42;5.47;;;1.40;;
32535;SDS011;18974;50.838;4.636;2023-07-13T12:02:13;5.45;;;1.85;;
32535;SDS011;18974;50.838;4.636;2023-07-13T12:04:42;7.32;;;1.75;;
32535;SDS011;18974;50.838;4.636;2023-07-13T12:07:16;7.63;;;1.88;;
32535;SDS011;18974;50.838;4.636;2023-07-13T12:09:43;5.90;;;1.55;;
32535;SDS011;18974;50.838;4.636;2023-07-13T12:12:16;3.90;;;1.50;;
32535;SDS011;18974;50.838;4.636;2023-07-13T12:14:46;8.43;;;1.67;;
32535;SDS011;18974;50.838;4.636;2023-07-13T12:17:20;2.10;;;1.20;;
32535;SDS011;18974;50.838;4.636;2023-07-13T12:19:51;8.70;;;1.98;;
32535;SDS011;18974;50.838;4.636;2023-07-13T12:22:18;3.90;;;1.33;;
32535;SDS011;18974;50.838;4.636;2023-07-13T12:24:45;6.53;;;1.70;;
32535;SDS011;18974;50.838;4.636;2023-07-13T12:27:23;4.60;;;1.70;;
32535;SDS011;18974;50.838;4.636;2023-07-13T12:29:58;5.22;;;1.40;;
32535;SDS011;18974;50.838;4.636;2023-07-13T12:32:26;9.00;;;1.27;;
32535;SDS011;18974;50.838;4.636;2023-07-13T12:34:57;6.72;;;1.52;;
32535;SDS011;18974;50.838;4.636;2023-07-13T12:37:34;8.75;;;1.98;;
32535;SDS011;18974;50.838;4.636;2023-07-13T12:40:00;7.13;;;1.50;;
32535;SDS011;18974;50.838;4.636;2023-07-13T12:42:31;7.50;;;1.60;;
32535;SDS011;18974;50.838;4.636;2023-07-13T12:45:02;4.05;;;1.30;;
32535;SDS011;18974;50.838;4.636;2023-07-13T12:47:41;7.50;;;1.60;;
32535;SDS011;18974;50.838;4.636;2023-07-13T12:50:12;3.92;;;1.40;;
32535;SDS011;18974;50.838;4.636;2023-07-13T12:52:43;3.50;;;1.27;;
32535;SDS011;18974;50.838;4.636;2023-07-13T12:55:13;4.82;;;1.27;;
32535;SDS011;18974;50.838;4.636;2023-07-13T12:57:52;6.10;;;1.45;;
32535;SDS011;18974;50.838;4.636;2023-07-13T13:02:55;2.88;;;1.20;;
32535;SDS011;18974;50.838;4.636;2023-07-13T13:05:24;13.48;;;1.83;;
32535;SDS011;18974;50.838;4.636;2023-07-13T13:07:51;2.92;;;1.38;;
32535;SDS011;18974;50.838;4.636;2023-07-13T13:10:17;3.20;;;1.23;;
32535;SDS011;18974;50.838;4.636;2023-07-13T13:12:43;6.72;;;1.33;;
32535;SDS011;18974;50.838;4.636;2023-07-13T13:15:09;4.22;;;1.52;;
32535;SDS011;18974;50.838;4.636;2023-07-13T13:17:36;3.33;;;1.35;;
32535;SDS011;18974;50.838;4.636;2023-07-13T13:20:16;5.00;;;1.75;;
32535;SDS011;18974;50.838;4.636;2023-07-13T13:22:46;5.95;;;1.60;;
32535;SDS011;18974;50.838;4.636;2023-07-13T13:25:12;7.88;;;1.88;;
32535;SDS011;18974;50.838;4.636;2023-07-13T13:27:43;5.20;;;1.98;;
32535;SDS011;18974;50.838;4.636;2023-07-13T13:30:11;3.58;;;1.98;;
32535;SDS011;18974;50.838;4.636;2023-07-13T13:32:39;5.47;;;2.08;;
32535;SDS011;18974;50.838;4.636;2023-07-13T13:35:11;5.70;;;2.05;;
32535;SDS011;18974;50.838;4.636;2023-07-13T13:37:43;5.82;;;2.35;;
32535;SDS011;18974;50.838;4.636;2023-07-13T13:40:28;4.88;;;2.30;;
32535;SDS011;18974;50.838;4.636;2023-07-13T13:42:55;8.07;;;2.30;;
32535;SDS011;18974;50.838;4.636;2023-07-13T13:45:22;5.63;;;2.03;;
32535;SDS011;18974;50.838;4.636;2023-07-13T13:47:49;6.03;;;1.55;;
32535;SDS011;18974;50.838;4.636;2023-07-13T13:50:19;6.05;;;1.63;;
32535;SDS011;18974;50.838;4.636;2023-07-13T13:52:49;5.18;;;1.73;;
32535;SDS011;18974;50.838;4.636;2023-07-13T13:55:16;4.10;;;1.58;;
32535;SDS011;18974;50.838;4.636;2023-07-13T13:57:46;6.47;;;1.70;;
32535;SDS011;18974;50.838;4.636;2023-07-13T14:00:13;6.82;;;1.88;;
32535;SDS011;18974;50.838;4.636;2023-07-13T14:02:42;5.53;;;1.67;;
32535;SDS011;18974;50.838;4.636;2023-07-13T14:05:16;4.43;;;1.95;;
32535;SDS011;18974;50.838;4.636;2023-07-13T14:07:46;6.18;;;1.73;;
32535;SDS011;18974;50.838;4.636;2023-07-13T14:10:14;4.30;;;1.88;;
32535;SDS011;18974;50.838;4.636;2023-07-13T14:12:45;3.22;;;1.42;;
32535;SDS011;18974;50.838;4.636;2023-07-13T14:15:25;6.28;;;1.85;;
32535;SDS011;18974;50.838;4.636;2023-07-13T14:17:53;5.93;;;1.60;;
32535;SDS011;18974;50.838;4.636;2023-07-13T14:20:20;4.40;;;1.80;;
32535;SDS011;18974;50.838;4.636;2023-07-13T14:22:48;6.38;;;1.70;;
32535;SDS011;18974;50.838;4.636;2023-07-13T14:25:15;7.28;;;1.80;;
32535;SDS011;18974;50.838;4.636;2023-07-13T14:27:42;4.68;;;1.60;;
32535;SDS011;18974;50.838;4.636;2023-07-13T14:30:16;3.45;;;1.38;;
32535;SDS011;18974;50.838;4.636;2023-07-13T14:32:44;5.47;;;1.50;;
32535;SDS011;18974;50.838;4.636;2023-07-13T14:35:11;3.35;;;1.63;;
32535;SDS011;18974;50.838;4.636;2023-07-13T14:37:38;13.80;;;2.60;;
32535;SDS011;18974;50.838;4.636;2023-07-13T14:40:15;5.00;;;1.60;;
32535;SDS011;18974;50.838;4.636;2023-07-13T14:42:43;6.30;;;1.52;;
32535;SDS011;18974;50.838;4.636;2023-07-13T14:45:12;3.55;;;1.65;;
32535;SDS011;18974;50.838;4.636;2023-07-13T14:47:42;4.72;;;1.98;;
32535;SDS011;18974;50.838;4.636;2023-07-13T14:50:15;4.47;;;1.85;;
32535;SDS011;18974;50.838;4.636;2023-07-13T14:52:45;4.78;;;1.52;;
32535;SDS011;18974;50.838;4.636;2023-07-13T14:55:13;4.93;;;1.52;;
32535;SDS011;18974;50.838;4.636;2023-07-13T14:57:41;4.47;;;1.70;;
32535;SDS011;18974;50.838;4.636;2023-07-13T15:00:14;5.13;;;1.80;;
32535;SDS011;18974;50.838;4.636;2023-07-13T15:02:45;5.50;;;1.70;;
32535;SDS011;18974;50.838;4.636;2023-07-13T15:05:24;7.90;;;2.10;;
32535;SDS011;18974;50.838;4.636;2023-07-13T15:07:52;5.40;;;2.05;;
32535;SDS011;18974;50.838;4.636;2023-07-13T15:10:23;5.40;;;1.65;;
32535;SDS011;18974;50.838;4.636;2023-07-13T15:12:56;4.95;;;1.63;;
32535;SDS011;18974;50.838;4.636;2023-07-13T15:15:30;5.82;;;1.70;;
32535;SDS011;18974;50.838;4.636;2023-07-13T15:17:58;4.10;;;1.58;;
32535;SDS011;18974;50.838;4.636;2023-07-13T15:20:26;4.00;;;1.58;;
32535;SDS011;18974;50.838;4.636;2023-07-13T15:22:54;3.47;;;1.30;;
32535;SDS011;18974;50.838;4.636;2023-07-13T15:25:21;4.07;;;1.13;;
32535;SDS011;18974;50.838;4.636;2023-07-13T15:27:49;4.60;;;1.70;;
32535;SDS011;18974;50.838;4.636;2023-07-13T15:30:16;2.58;;;1.20;;
32535;SDS011;18974;50.838;4.636;2023-07-13T15:32:42;3.13;;;1.30;;